sensor_id;sensor_type;location;lat;lon;timestamp;pressure;altitude;pressure_sealevel;temperature;humidity
61109;BME280;46995;55.740;37.402;2023-04-25T00:01:40;99268.59;;;12.76;40.76
61109;BME280;46995;55.740;37.402;2023-04-25T00:04:06;99261.94;;;12.71;39.89
61109;BME280;46995;55.740;37.402;2023-04-25T00:06:32;99262.91;;;12.70;39.84
61109;BME280;46995;55.740;37.402;2023-04-25T00:09:02;99263.59;;;12.72;40.18
61109;BME280;46995;55.740;37.402;2023-04-25T00:11:28;99265.56;;;12.70;40.51
61109;BME280;46995;55.740;37.402;2023-04-25T00:13:55;99270.69;;;12.72;39.58
61109;BME280;46995;55.740;37.402;2023-04-25T00:16:21;99275.47;;;12.68;40.17
61109;BME280;46995;55.740;37.402;2023-04-25T00:18:46;99277.06;;;12.61;40.30
61109;BME280;46995;55.740;37.402;2023-04-25T00:21:17;99282.16;;;12.55;40.28
61109;BME280;46995;55.740;37.402;2023-04-25T00:23:43;99279.63;;;12.53;40.16
61109;BME280;46995;55.740;37.402;2023-04-25T00:26:08;99280.78;;;12.51;41.37
61109;BME280;46995;55.740;37.402;2023-04-25T00:28:34;99283.44;;;12.51;40.17
61109;BME280;46995;55.740;37.402;2023-04-25T00:31:00;99287.19;;;12.48;41.17
61109;BME280;46995;55.740;37.402;2023-04-25T00:33:25;99290.00;;;12.47;40.93
61109;BME280;46995;55.740;37.402;2023-04-25T00:35:51;99290.44;;;12.42;40.93
61109;BME280;46995;55.740;37.402;2023-04-25T00:38:18;99296.06;;;12.39;41.70
61109;BME280;46995;55.740;37.402;2023-04-25T00:40:43;99291.03;;;12.36;42.17
61109;BME280;46995;55.740;37.402;2023-04-25T00:43:09;99290.38;;;12.34;41.68
61109;BME280;46995;55.740;37.402;2023-04-25T00:45:34;99290.66;;;12.31;42.16
61109;BME280;46995;55.740;37.402;2023-04-25T00:48:03;99290.81;;;12.29;42.25
61109;BME280;46995;55.740;37.402;2023-04-25T00:50:29;99285.66;;;12.28;42.71
61109;BME280;46995;55.740;37.402;2023-04-25T00:52:55;99290.00;;;12.29;42.30
61109;BME280;46995;55.740;37.402;2023-04-25T00:55:21;99288.97;;;12.30;42.34
61109;BME280;46995;55.740;37.402;2023-04-25T00:57:47;99286.75;;;12.35;43.07
61109;BME280;46995;55.740;37.402;2023-04-25T01:00:13;99283.47;;;12.41;42.91
61109;BME280;46995;55.740;37.402;2023-04-25T01:02:40;99288.03;;;12.49;42.96
61109;BME280;46995;55.740;37.402;2023-04-25T01:05:05;99285.78;;;12.54;43.06
61109;BME280;46995;55.740;37.402;2023-04-25T01:07:31;99277.69;;;12.55;43.53
61109;BME280;46995;55.740;37.402;2023-04-25T01:09:57;99280.16;;;12.57;43.17
61109;BME280;46995;55.740;37.402;2023-04-25T01:12:23;99280.34;;;12.55;43.38
61109;BME280;46995;55.740;37.402;2023-04-25T01:14:49;99277.00;;;12.53;43.31
61109;BME280;46995;55.740;37.402;2023-04-25T01:17:15;99280.63;;;12.52;43.40
61109;BME280;46995;55.740;37.402;2023-04-25T01:19:41;99276.28;;;12.51;43.23
61109;BME280;46995;55.740;37.402;2023-04-25T01:22:07;99280.63;;;12.52;43.39
61109;BME280;46995;55.740;37.402;2023-04-25T01:24:35;99277.31;;;12.50;43.23
61109;BME280;46995;55.740;37.402;2023-04-25T01:27:01;99267.81;;;12.48;43.59
61109;BME280;46995;55.740;37.402;2023-04-25T01:29:27;99276.59;;;12.48;43.76
61109;BME280;46995;55.740;37.402;2023-04-25T01:31:53;99274.28;;;12.45;43.98
61109;BME280;46995;55.740;37.402;2023-04-25T01:34:19;99268.28;;;12.43;43.88
61109;BME280;46995;55.740;37.402;2023-04-25T01:36:45;99273.06;;;12.40;43.93
61109;BME280;46995;55.740;37.402;2023-04-25T01:39:12;99270.03;;;12.35;44.47
61109;BME280;46995;55.740;37.402;2023-04-25T01:41:37;99274.47;;;12.34;44.30
61109;BME280;46995;55.740;37.402;2023-04-25T01:44:03;99277.41;;;12.31;44.34
61109;BME280;46995;55.740;37.402;2023-04-25T01:46:29;99271.13;;;12.32;44.45
61109;BME280;46995;55.740;37.402;2023-04-25T01:48:55;99269.19;;;12.34;44.71
61109;BME280;46995;55.740;37.402;2023-04-25T01:51:21;99274.47;;;12.34;44.42
61109;BME280;46995;55.740;37.402;2023-04-25T01:53:47;99272.34;;;12.38;44.67
61109;BME280;46995;55.740;37.402;2023-04-25T01:56:13;99264.94;;;12.41;44.55
61109;BME280;46995;55.740;37.402;2023-04-25T01:58:38;99267.97;;;12.46;44.78
61109;BME280;46995;55.740;37.402;2023-04-25T02:01:16;99272.84;;;12.51;44.67
61109;BME280;46995;55.740;37.402;2023-04-25T02:03:49;99259.13;;;12.55;44.70
61109;BME280;46995;55.740;37.402;2023-04-25T02:06:24;99258.50;;;12.61;44.58
61109;BME280;46995;55.740;37.402;2023-04-25T02:08:52;99253.63;;;12.66;45.12
61109;BME280;46995;55.740;37.402;2023-04-25T02:11:17;99252.31;;;12.70;44.95
61109;BME280;46995;55.740;37.402;2023-04-25T02:14:06;99258.13;;;12.74;45.48
61109;BME280;46995;55.740;37.402;2023-04-25T02:16:55;99252.84;;;12.74;45.00
61109;BME280;46995;55.740;37.402;2023-04-25T02:19:22;99249.34;;;12.73;45.21
61109;BME280;46995;55.740;37.402;2023-04-25T02:21:47;99248.22;;;12.76;44.90
61109;BME280;46995;55.740;37.402;2023-04-25T02:24:13;99247.91;;;12.79;44.99
61109;BME280;46995;55.740;37.402;2023-04-25T02:26:38;99247.63;;;12.82;45.29
61109;BME280;46995;55.740;37.402;2023-04-25T02:29:08;99249.81;;;12.87;44.97
61109;BME280;46995;55.740;37.402;2023-04-25T02:31:34;99251.16;;;12.91;45.17
61109;BME280;46995;55.740;37.402;2023-04-25T02:33:59;99248.88;;;12.96;45.02
61109;BME280;46995;55.740;37.402;2023-04-25T02:36:26;99246.91;;;12.98;45.53
61109;BME280;46995;55.740;37.402;2023-04-25T02:38:52;99248.28;;;13.02;45.42
61109;BME280;46995;55.740;37.402;2023-04-25T02:41:23;99248.63;;;13.07;45.33
61109;BME280;46995;55.740;37.402;2023-04-25T02:43:49;99242.03;;;13.11;45.28
61109;BME280;46995;55.740;37.402;2023-04-25T02:46:17;99247.72;;;13.16;45.52
61109;BME280;46995;55.740;37.402;2023-04-25T02:48:43;99246.13;;;13.23;45.67
61109;BME280;46995;55.740;37.402;2023-04-25T02:51:08;99252.78;;;13.27;45.29
61109;BME280;46995;55.740;37.402;2023-04-25T02:53:34;99253.84;;;13.34;45.10
61109;BME280;46995;55.740;37.402;2023-04-25T02:56:00;99256.16;;;13.37;45.14
61109;BME280;46995;55.740;37.402;2023-04-25T02:58:25;99255.53;;;13.43;44.95
61109;BME280;46995;55.740;37.402;2023-04-25T03:00:53;99262.88;;;13.49;44.64
61109;BME280;46995;55.740;37.402;2023-04-25T03:03:18;99259.75;;;13.54;44.25
61109;BME280;46995;55.740;37.402;2023-04-25T03:05:50;99264.56;;;13.58;44.68
61109;BME280;46995;55.740;37.402;2023-04-25T03:08:20;99256.81;;;13.65;44.73
61109;BME280;46995;55.740;37.402;2023-04-25T03:10:46;99263.00;;;13.74;44.38
61109;BME280;46995;55.740;37.402;2023-04-25T03:13:15;99262.22;;;13.81;44.60
61109;BME280;46995;55.740;37.402;2023-04-25T03:15:43;99256.94;;;13.89;43.66
61109;BME280;46995;55.740;37.402;2023-04-25T03:18:09;99261.44;;;13.97;44.53
61109;BME280;46995;55.740;37.402;2023-04-25T03:20:34;99253.50;;;14.05;44.51
61109;BME280;46995;55.740;37.402;2023-04-25T03:23:00;99253.50;;;14.13;44.46
61109;BME280;46995;55.740;37.402;2023-04-25T03:25:29;99247.25;;;14.22;44.03
61109;BME280;46995;55.740;37.402;2023-04-25T03:27:55;99242.78;;;14.31;43.76
61109;BME280;46995;55.740;37.402;2023-04-25T03:30:21;99231.66;;;14.35;43.64
61109;BME280;46995;55.740;37.402;2023-04-25T03:32:47;99234.03;;;14.38;43.53
61109;BME280;46995;55.740;37.402;2023-04-25T03:35:16;99241.00;;;14.39;44.07
61109;BME280;46995;55.740;37.402;2023-04-25T03:37:41;99245.50;;;14.47;44.27
61109;BME280;46995;55.740;37.402;2023-04-25T03:40:12;99249.81;;;14.56;44.11
61109;BME280;46995;55.740;37.402;2023-04-25T03:42:58;99250.69;;;14.73;43.84
61109;BME280;46995;55.740;37.402;2023-04-25T03:45:23;99248.38;;;14.86;43.70
61109;BME280;46995;55.740;37.402;2023-04-25T03:47:49;99248.34;;;15.02;43.19
61109;BME280;46995;55.740;37.402;2023-04-25T03:50:15;99243.72;;;15.12;43.14
61109;BME280;46995;55.740;37.402;2023-04-25T03:52:40;99247.16;;;15.21;43.01
61109;BME280;46995;55.740;37.402;2023-04-25T03:55:10;99246.66;;;15.25;43.10
61109;BME280;46995;55.740;37.402;2023-04-25T03:57:36;99241.00;;;15.28;42.96
61109;BME280;46995;55.740;37.402;2023-04-25T04:00:02;99237.53;;;15.28;42.97
61109;BME280;46995;55.740;37.402;2023-04-25T04:02:38;99240.66;;;15.23;42.87
61109;BME280;46995;55.740;37.402;2023-04-25T04:05:04;99237.88;;;15.17;42.86
61109;BME280;46995;55.740;37.402;2023-04-25T04:07:35;99247.34;;;15.11;42.55
61109;BME280;46995;55.740;37.402;2023-04-25T04:10:09;99242.69;;;15.05;42.98
61109;BME280;46995;55.740;37.402;2023-04-25T04:12:38;99238.06;;;14.99;43.31
61109;BME280;46995;55.740;37.402;2023-04-25T04:15:04;99243.03;;;14.94;43.44
61109;BME280;46995;55.740;37.402;2023-04-25T04:17:30;99242.72;;;14.89;43.08
61109;BME280;46995;55.740;37.402;2023-04-25T04:19:57;99244.88;;;14.86;43.54
61109;BME280;46995;55.740;37.402;2023-04-25T04:22:23;99240.06;;;14.81;43.76
61109;BME280;46995;55.740;37.402;2023-04-25T04:24:51;99240.38;;;14.78;43.40
61109;BME280;46995;55.740;37.402;2023-04-25T04:27:31;99234.56;;;14.74;42.72
61109;BME280;46995;55.740;37.402;2023-04-25T04:30:13;99235.56;;;14.73;43.77
61109;BME280;46995;55.740;37.402;2023-04-25T04:32:55;99239.69;;;14.76;43.95
61109;BME280;46995;55.740;37.402;2023-04-25T04:35:21;99228.06;;;14.77;43.85
61109;BME280;46995;55.740;37.402;2023-04-25T04:37:47;99233.22;;;14.78;44.33
61109;BME280;46995;55.740;37.402;2023-04-25T04:40:15;99229.44;;;14.81;43.94
61109;BME280;46995;55.740;37.402;2023-04-25T04:42:50;99228.41;;;14.82;44.30
61109;BME280;46995;55.740;37.402;2023-04-25T04:45:37;99230.75;;;14.85;44.12
61109;BME280;46995;55.740;37.402;2023-04-25T04:48:21;99236.72;;;14.87;43.98
61109;BME280;46995;55.740;37.402;2023-04-25T04:51:07;99232.06;;;14.89;44.18
61109;BME280;46995;55.740;37.402;2023-04-25T04:53:51;99237.03;;;14.92;43.82
61109;BME280;46995;55.740;37.402;2023-04-25T04:56:35;99238.41;;;14.96;43.91
61109;BME280;46995;55.740;37.402;2023-04-25T04:59:14;99235.53;;;14.98;43.72
61109;BME280;46995;55.740;37.402;2023-04-25T05:01:56;99232.38;;;15.02;43.94
61109;BME280;46995;55.740;37.402;2023-04-25T05:04:45;99228.41;;;15.06;43.75
61109;BME280;46995;55.740;37.402;2023-04-25T05:07:36;99232.38;;;15.10;43.59
61109;BME280;46995;55.740;37.402;2023-04-25T05:10:06;99233.72;;;15.14;43.56
61109;BME280;46995;55.740;37.402;2023-04-25T05:13:01;99228.72;;;15.19;43.64
61109;BME280;46995;55.740;37.402;2023-04-25T05:15:30;99223.72;;;15.24;43.48
61109;BME280;46995;55.740;37.402;2023-04-25T05:18:16;99225.53;;;15.32;43.57
61109;BME280;46995;55.740;37.402;2023-04-25T05:20:55;99219.72;;;15.37;43.75
61109;BME280;46995;55.740;37.402;2023-04-25T05:23:39;99229.69;;;15.43;43.54
61109;BME280;46995;55.740;37.402;2023-04-25T05:26:24;99227.84;;;15.51;43.66
61109;BME280;46995;55.740;37.402;2023-04-25T05:29:19;99223.00;;;15.55;43.59
61109;BME280;46995;55.740;37.402;2023-04-25T05:32:08;99227.63;;;15.61;43.48
61109;BME280;46995;55.740;37.402;2023-04-25T05:34:34;99226.13;;;15.66;42.95
61109;BME280;46995;55.740;37.402;2023-04-25T05:37:04;99227.94;;;15.74;43.43
61109;BME280;46995;55.740;37.402;2023-04-25T05:39:32;99226.44;;;15.80;43.31
61109;BME280;46995;55.740;37.402;2023-04-25T05:42:13;99230.22;;;15.85;43.07
61109;BME280;46995;55.740;37.402;2023-04-25T05:44:44;99228.72;;;15.91;43.25
61109;BME280;46995;55.740;37.402;2023-04-25T05:47:33;99212.84;;;15.97;43.32
61109;BME280;46995;55.740;37.402;2023-04-25T05:50:09;99219.31;;;16.03;43.01
61109;BME280;46995;55.740;37.402;2023-04-25T05:52:51;99212.28;;;16.10;42.93
61109;BME280;46995;55.740;37.402;2023-04-25T05:55:23;99219.75;;;16.15;42.95
61109;BME280;46995;55.740;37.402;2023-04-25T05:57:49;99213.06;;;16.19;42.99
61109;BME280;46995;55.740;37.402;2023-04-25T06:00:16;99216.03;;;16.24;42.53
61109;BME280;46995;55.740;37.402;2023-04-25T06:02:43;99215.16;;;16.31;42.28
61109;BME280;46995;55.740;37.402;2023-04-25T06:05:11;99217.28;;;16.36;42.44
61109;BME280;46995;55.740;37.402;2023-04-25T06:07:37;99206.75;;;16.42;42.15
61109;BME280;46995;55.740;37.402;2023-04-25T06:10:03;99196.56;;;16.46;42.11
61109;BME280;46995;55.740;37.402;2023-04-25T06:12:31;99197.88;;;16.50;42.01
61109;BME280;46995;55.740;37.402;2023-04-25T06:14:58;99192.81;;;16.55;42.23
61109;BME280;46995;55.740;37.402;2023-04-25T06:17:24;99195.81;;;16.60;41.89
61109;BME280;46995;55.740;37.402;2023-04-25T06:20:02;99193.44;;;16.65;41.72
61109;BME280;46995;55.740;37.402;2023-04-25T06:22:30;99182.25;;;16.70;41.47
61109;BME280;46995;55.740;37.402;2023-04-25T06:24:56;99187.06;;;16.74;41.05
61109;BME280;46995;55.740;37.402;2023-04-25T06:27:24;99182.84;;;16.80;41.14
61109;BME280;46995;55.740;37.402;2023-04-25T06:29:50;99177.97;;;16.83;40.99
61109;BME280;46995;55.740;37.402;2023-04-25T06:32:15;99179.91;;;16.89;40.89
61109;BME280;46995;55.740;37.402;2023-04-25T06:34:43;99177.72;;;16.93;40.85
61109;BME280;46995;55.740;37.402;2023-04-25T06:37:09;99173.50;;;16.99;40.81
61109;BME280;46995;55.740;37.402;2023-04-25T06:39:37;99166.59;;;17.04;40.63
61109;BME280;46995;55.740;37.402;2023-04-25T06:42:03;99179.22;;;17.10;40.41
61109;BME280;46995;55.740;37.402;2023-04-25T06:45:04;99174.16;;;17.15;39.85
61109;BME280;46995;55.740;37.402;2023-04-25T06:47:30;99176.44;;;17.18;39.73
61109;BME280;46995;55.740;37.402;2023-04-25T06:49:58;99172.22;;;17.24;39.66
61109;BME280;46995;55.740;37.402;2023-04-25T06:52:24;99176.16;;;17.28;39.31
61109;BME280;46995;55.740;37.402;2023-04-25T06:54:51;99175.81;;;17.31;38.90
61109;BME280;46995;55.740;37.402;2023-04-25T06:57:37;99179.13;;;17.33;38.78
61109;BME280;46995;55.740;37.402;2023-04-25T07:00:23;99177.94;;;17.35;38.94
61109;BME280;46995;55.740;37.402;2023-04-25T07:02:48;99167.72;;;17.39;38.76
61109;BME280;46995;55.740;37.402;2023-04-25T07:05:15;99183.00;;;17.45;38.78
61109;BME280;46995;55.740;37.402;2023-04-25T07:07:40;99174.91;;;17.53;38.73
61109;BME280;46995;55.740;37.402;2023-04-25T07:10:06;99182.19;;;17.59;38.62
61109;BME280;46995;55.740;37.402;2023-04-25T07:12:32;99173.81;;;17.62;38.34
61109;BME280;46995;55.740;37.402;2023-04-25T07:14:57;99176.28;;;17.64;37.80
61109;BME280;46995;55.740;37.402;2023-04-25T07:17:23;99171.41;;;17.67;38.16
61109;BME280;46995;55.740;37.402;2023-04-25T07:19:49;99168.00;;;17.73;37.92
61109;BME280;46995;55.740;37.402;2023-04-25T07:22:16;99169.28;;;17.77;37.97
61109;BME280;46995;55.740;37.402;2023-04-25T07:24:42;99163.56;;;17.81;37.39
61109;BME280;46995;55.740;37.402;2023-04-25T07:27:11;99162.81;;;17.87;37.55
61109;BME280;46995;55.740;37.402;2023-04-25T07:30:02;99157.72;;;17.92;37.35
61109;BME280;46995;55.740;37.402;2023-04-25T07:32:29;99154.50;;;17.96;37.39
61109;BME280;46995;55.740;37.402;2023-04-25T07:34:55;99150.81;;;17.97;37.17
61109;BME280;46995;55.740;37.402;2023-04-25T07:37:21;99158.66;;;17.99;37.17
61109;BME280;46995;55.740;37.402;2023-04-25T07:39:59;99154.56;;;18.03;37.15
61109;BME280;46995;55.740;37.402;2023-04-25T07:42:26;99159.53;;;18.06;37.05
61109;BME280;46995;55.740;37.402;2023-04-25T07:44:52;99155.84;;;18.07;37.01
61109;BME280;46995;55.740;37.402;2023-04-25T07:47:17;99163.28;;;18.11;37.55
61109;BME280;46995;55.740;37.402;2023-04-25T07:49:45;99161.72;;;18.17;36.56
61109;BME280;46995;55.740;37.402;2023-04-25T07:52:11;99155.00;;;18.21;36.49
61109;BME280;46995;55.740;37.402;2023-04-25T07:54:40;99153.19;;;18.28;36.53
61109;BME280;46995;55.740;37.402;2023-04-25T07:57:14;99161.47;;;18.33;36.61
61109;BME280;46995;55.740;37.402;2023-04-25T07:59:40;99160.31;;;18.42;36.35
61109;BME280;46995;55.740;37.402;2023-04-25T08:02:05;99153.84;;;18.51;36.78
61109;BME280;46995;55.740;37.402;2023-04-25T08:04:32;99155.38;;;18.60;36.47
61109;BME280;46995;55.740;37.402;2023-04-25T08:07:02;99142.91;;;18.68;36.76
61109;BME280;46995;55.740;37.402;2023-04-25T08:09:31;99148.69;;;18.71;36.72
61109;BME280;46995;55.740;37.402;2023-04-25T08:12:04;99164.56;;;18.73;36.50
61109;BME280;46995;55.740;37.402;2023-04-25T08:14:31;99150.78;;;18.76;36.14
61109;BME280;46995;55.740;37.402;2023-04-25T08:17:04;99153.31;;;18.84;36.01
61109;BME280;46995;55.740;37.402;2023-04-25T08:19:32;99157.50;;;18.93;36.38
61109;BME280;46995;55.740;37.402;2023-04-25T08:21:57;99168.69;;;19.03;35.71
61109;BME280;46995;55.740;37.402;2023-04-25T08:24:33;99156.28;;;19.23;35.58
61109;BME280;46995;55.740;37.402;2023-04-25T08:27:01;99156.22;;;19.44;35.74
61109;BME280;46995;55.740;37.402;2023-04-25T08:29:29;99165.38;;;19.63;35.25
61109;BME280;46995;55.740;37.402;2023-04-25T08:31:55;99157.19;;;19.71;35.50
61109;BME280;46995;55.740;37.402;2023-04-25T08:34:21;99159.03;;;19.71;35.32
61109;BME280;46995;55.740;37.402;2023-04-25T08:36:50;99162.50;;;19.65;34.98
61109;BME280;46995;55.740;37.402;2023-04-25T08:39:39;99154.66;;;19.57;35.58
61109;BME280;46995;55.740;37.402;2023-04-25T08:42:33;99152.94;;;19.49;35.40
61109;BME280;46995;55.740;37.402;2023-04-25T08:45:01;99152.25;;;19.40;36.00
61109;BME280;46995;55.740;37.402;2023-04-25T08:47:32;99143.19;;;19.41;35.49
61109;BME280;46995;55.740;37.402;2023-04-25T08:49:58;99145.53;;;19.51;35.59
61109;BME280;46995;55.740;37.402;2023-04-25T08:52:27;99132.59;;;19.61;34.62
61109;BME280;46995;55.740;37.402;2023-04-25T08:54:53;99133.25;;;19.70;35.15
61109;BME280;46995;55.740;37.402;2023-04-25T08:57:21;99129.13;;;19.74;34.93
61109;BME280;46995;55.740;37.402;2023-04-25T08:59:50;99130.00;;;19.81;34.86
61109;BME280;46995;55.740;37.402;2023-04-25T09:02:17;99127.31;;;19.81;34.73
61109;BME280;46995;55.740;37.402;2023-04-25T09:04:47;99123.19;;;19.72;34.27
61109;BME280;46995;55.740;37.402;2023-04-25T09:07:13;99124.59;;;19.68;34.84
61109;BME280;46995;55.740;37.402;2023-04-25T09:09:46;99117.97;;;19.64;34.42
61109;BME280;46995;55.740;37.402;2023-04-25T09:12:14;99121.66;;;19.63;34.62
61109;BME280;46995;55.740;37.402;2023-04-25T09:14:40;99123.31;;;19.57;35.12
61109;BME280;46995;55.740;37.402;2023-04-25T09:17:21;99117.53;;;19.54;35.21
61109;BME280;46995;55.740;37.402;2023-04-25T09:19:53;99115.06;;;19.59;35.54
61109;BME280;46995;55.740;37.402;2023-04-25T09:22:26;99109.31;;;19.62;35.00
61109;BME280;46995;55.740;37.402;2023-04-25T09:24:52;99110.16;;;19.69;35.47
61109;BME280;46995;55.740;37.402;2023-04-25T09:27:21;99111.03;;;19.76;35.04
61109;BME280;46995;55.740;37.402;2023-04-25T09:30:16;99106.69;;;19.75;35.20
61109;BME280;46995;55.740;37.402;2023-04-25T09:32:56;99106.69;;;19.75;35.29
61109;BME280;46995;55.740;37.402;2023-04-25T09:35:25;99104.41;;;19.72;34.98
61109;BME280;46995;55.740;37.402;2023-04-25T09:37:57;99106.50;;;19.76;35.49
61109;BME280;46995;55.740;37.402;2023-04-25T09:40:42;99103.63;;;19.78;35.09
61109;BME280;46995;55.740;37.402;2023-04-25T09:43:48;99096.81;;;19.82;35.10
61109;BME280;46995;55.740;37.402;2023-04-25T09:46:14;99087.13;;;19.94;34.95
61109;BME280;46995;55.740;37.402;2023-04-25T09:48:52;99101.44;;;20.14;34.86
61109;BME280;46995;55.740;37.402;2023-04-25T09:51:26;99089.28;;;20.32;33.91
61109;BME280;46995;55.740;37.402;2023-04-25T09:53:55;99092.41;;;20.35;34.65
61109;BME280;46995;55.740;37.402;2023-04-25T09:56:40;99082.94;;;20.46;34.11
61109;BME280;46995;55.740;37.402;2023-04-25T09:59:07;99084.56;;;20.53;34.56
61109;BME280;46995;55.740;37.402;2023-04-25T10:01:36;99085.81;;;20.51;34.34
61109;BME280;46995;55.740;37.402;2023-04-25T10:04:10;99084.94;;;20.24;34.00
61109;BME280;46995;55.740;37.402;2023-04-25T10:06:44;99080.56;;;19.97;34.67
61109;BME280;46995;55.740;37.402;2023-04-25T10:09:11;99082.16;;;19.84;34.72
61109;BME280;46995;55.740;37.402;2023-04-25T10:11:38;99083.59;;;19.74;34.36
61109;BME280;46995;55.740;37.402;2023-04-25T10:14:04;99074.91;;;19.65;34.44
61109;BME280;46995;55.740;37.402;2023-04-25T10:16:31;99074.28;;;19.63;34.07
61109;BME280;46995;55.740;37.402;2023-04-25T10:18:57;99065.25;;;19.71;34.33
61109;BME280;46995;55.740;37.402;2023-04-25T10:21:23;99067.75;;;19.85;34.21
61109;BME280;46995;55.740;37.402;2023-04-25T10:23:49;99064.06;;;20.06;33.86
61109;BME280;46995;55.740;37.402;2023-04-25T10:26:15;99059.56;;;20.26;33.83
61109;BME280;46995;55.740;37.402;2023-04-25T10:29:01;99065.78;;;20.40;33.64
61109;BME280;46995;55.740;37.402;2023-04-25T10:31:28;99056.31;;;20.51;33.70
61109;BME280;46995;55.740;37.402;2023-04-25T10:33:54;99058.38;;;20.55;33.59
61109;BME280;46995;55.740;37.402;2023-04-25T10:36:21;99057.94;;;20.52;33.46
61109;BME280;46995;55.740;37.402;2023-04-25T10:38:47;99053.81;;;20.49;33.40
61109;BME280;46995;55.740;37.402;2023-04-25T10:41:13;99045.56;;;20.51;33.79
61109;BME280;46995;55.740;37.402;2023-04-25T10:43:43;99051.75;;;20.51;33.72
61109;BME280;46995;55.740;37.402;2023-04-25T10:46:19;99044.31;;;20.53;33.66
61109;BME280;46995;55.740;37.402;2023-04-25T10:48:45;99040.81;;;20.59;33.36
61109;BME280;46995;55.740;37.402;2023-04-25T10:51:19;99039.34;;;20.57;33.76
61109;BME280;46995;55.740;37.402;2023-04-25T10:53:45;99038.56;;;20.50;33.67
61109;BME280;46995;55.740;37.402;2023-04-25T10:56:12;99034.22;;;20.42;33.58
61109;BME280;46995;55.740;37.402;2023-04-25T10:58:42;99032.34;;;20.43;33.60
61109;BME280;46995;55.740;37.402;2023-04-25T11:01:12;99027.00;;;20.43;33.27
61109;BME280;46995;55.740;37.402;2023-04-25T11:03:38;99029.06;;;20.41;33.15
61109;BME280;46995;55.740;37.402;2023-04-25T11:06:05;99024.50;;;20.41;33.39
61109;BME280;46995;55.740;37.402;2023-04-25T11:09:09;99021.63;;;20.43;33.22
61109;BME280;46995;55.740;37.402;2023-04-25T11:11:28;99019.34;;;20.53;33.18
61109;BME280;46995;55.740;37.402;2023-04-25T11:13:54;99014.19;;;20.58;33.43
61109;BME280;46995;55.740;37.402;2023-04-25T11:16:19;99005.09;;;20.59;33.30
61109;BME280;46995;55.740;37.402;2023-04-25T11:18:49;99002.22;;;20.54;33.03
61109;BME280;46995;55.740;37.402;2023-04-25T11:21:14;99001.19;;;20.55;32.91
61109;BME280;46995;55.740;37.402;2023-04-25T11:23:46;98998.91;;;20.65;32.82
61109;BME280;46995;55.740;37.402;2023-04-25T11:26:12;98987.72;;;20.75;32.91
61109;BME280;46995;55.740;37.402;2023-04-25T11:28:38;98992.66;;;20.84;32.72
61109;BME280;46995;55.740;37.402;2023-04-25T11:31:04;98984.78;;;20.96;32.60
61109;BME280;46995;55.740;37.402;2023-04-25T11:33:30;98979.78;;;21.06;32.97
61109;BME280;46995;55.740;37.402;2023-04-25T11:35:56;98978.53;;;21.08;32.87
61109;BME280;46995;55.740;37.402;2023-04-25T11:38:22;98975.22;;;21.13;32.78
61109;BME280;46995;55.740;37.402;2023-04-25T11:40:51;98974.16;;;21.21;32.53
61109;BME280;46995;55.740;37.402;2023-04-25T11:43:17;98968.13;;;21.32;32.49
61109;BME280;46995;55.740;37.402;2023-04-25T11:45:45;98975.69;;;21.48;31.83
61109;BME280;46995;55.740;37.402;2023-04-25T11:48:11;98970.06;;;21.56;32.11
61109;BME280;46995;55.740;37.402;2023-04-25T11:50:38;98958.88;;;21.59;31.93
61109;BME280;46995;55.740;37.402;2023-04-25T11:53:04;98956.63;;;21.56;31.82
61109;BME280;46995;55.740;37.402;2023-04-25T11:55:29;98963.25;;;21.53;32.11
61109;BME280;46995;55.740;37.402;2023-04-25T11:57:55;98958.06;;;21.52;31.32
61109;BME280;46995;55.740;37.402;2023-04-25T12:00:25;98956.22;;;21.52;32.25
61109;BME280;46995;55.740;37.402;2023-04-25T12:02:52;98944.81;;;21.57;32.31
61109;BME280;46995;55.740;37.402;2023-04-25T12:05:18;98944.97;;;21.62;31.87
61109;BME280;46995;55.740;37.402;2023-04-25T12:07:45;98942.38;;;21.80;31.39
61109;BME280;46995;55.740;37.402;2023-04-25T12:10:11;98942.03;;;22.02;31.42
61109;BME280;46995;55.740;37.402;2023-04-25T12:12:37;98937.75;;;22.19;31.02
61109;BME280;46995;55.740;37.402;2023-04-25T12:17:35;98929.53;;;22.14;31.41
61109;BME280;46995;55.740;37.402;2023-04-25T12:20:07;98923.44;;;21.93;31.13
61109;BME280;46995;55.740;37.402;2023-04-25T12:22:32;98920.25;;;21.78;31.25
61109;BME280;46995;55.740;37.402;2023-04-25T12:24:59;98910.44;;;21.66;31.16
61109;BME280;46995;55.740;37.402;2023-04-25T12:27:25;98915.69;;;21.54;31.54
61109;BME280;46995;55.740;37.402;2023-04-25T12:29:52;98913.00;;;21.54;31.66
61109;BME280;46995;55.740;37.402;2023-04-25T12:32:18;98904.75;;;21.55;31.82
61109;BME280;46995;55.740;37.402;2023-04-25T12:34:44;98905.56;;;21.56;32.24
61109;BME280;46995;55.740;37.402;2023-04-25T12:37:10;98892.38;;;21.48;32.01
61109;BME280;46995;55.740;37.402;2023-04-25T12:39:36;98892.38;;;21.48;31.65
61109;BME280;46995;55.740;37.402;2023-04-25T12:42:02;98882.59;;;21.60;32.04
61109;BME280;46995;55.740;37.402;2023-04-25T12:44:28;98888.81;;;21.79;31.43
61109;BME280;46995;55.740;37.402;2023-04-25T12:46:54;98887.34;;;21.83;31.68
61109;BME280;46995;55.740;37.402;2023-04-25T12:49:29;98879.72;;;21.80;31.63
61109;BME280;46995;55.740;37.402;2023-04-25T12:51:55;98875.78;;;21.82;31.47
61109;BME280;46995;55.740;37.402;2023-04-25T12:54:20;98875.78;;;21.82;31.65
61109;BME280;46995;55.740;37.402;2023-04-25T12:56:46;98876.22;;;21.79;31.51
61109;BME280;46995;55.740;37.402;2023-04-25T12:59:12;98868.59;;;21.76;31.91
61109;BME280;46995;55.740;37.402;2023-04-25T13:01:38;98864.25;;;21.75;31.68
61109;BME280;46995;55.740;37.402;2023-04-25T13:04:03;98856.91;;;21.64;31.66
61109;BME280;46995;55.740;37.402;2023-04-25T13:06:29;98865.63;;;21.60;32.11